sensor_id;sensor_type;location;lat;lon;timestamp;P1;durP1;ratioP1;P2;durP2;ratioP2
26201;SDS011;13944;28.562;77.188;2022-10-23T00:00:30;127.50;;;88.00;;
26201;SDS011;13944;28.562;77.188;2022-10-23T00:02:57;136.47;;;91.00;;
26201;SDS011;13944;28.562;77.188;2022-10-23T00:05:24;133.93;;;90.73;;
26201;SDS011;13944;28.562;77.188;2022-10-23T00:07:51;136.47;;;94.23;;
26201;SDS011;13944;28.562;77.188;2022-10-23T00:10:18;132.43;;;89.70;;
26201;SDS011;13944;28.562;77.188;2022-10-23T00:12:45;132.50;;;91.67;;
26201;SDS011;13944;28.562;77.188;2022-10-23T00:15:12;142.00;;;91.17;;
26201;SDS011;13944;28.562;77.188;2022-10-23T00:17:39;141.70;;;94.83;;
26201;SDS011;13944;28.562;77.188;2022-10-23T00:20:06;151.67;;;96.60;;
26201;SDS011;13944;28.562;77.188;2022-10-23T00:22:33;138.53;;;95.10;;
26201;SDS011;13944;28.562;77.188;2022-10-23T00:25:00;140.67;;;95.77;;
26201;SDS011;13944;28.562;77.188;2022-10-23T00:27:26;139.90;;;93.73;;
26201;SDS011;13944;28.562;77.188;2022-10-23T00:29:56;136.57;;;95.23;;
26201;SDS011;13944;28.562;77.188;2022-10-23T00:32:22;136.67;;;94.13;;
26201;SDS011;13944;28.562;77.188;2022-10-23T00:34:49;142.97;;;94.90;;
26201;SDS011;13944;28.562;77.188;2022-10-23T00:37:15;141.93;;;95.10;;
26201;SDS011;13944;28.562;77.188;2022-10-23T00:39:42;151.00;;;97.17;;
26201;SDS011;13944;28.562;77.188;2022-10-23T00:42:15;149.13;;;99.17;;
26201;SDS011;13944;28.562;77.188;2022-10-23T00:47:08;155.20;;;101.27;;
26201;SDS011;13944;28.562;77.188;2022-10-23T00:49:36;157.93;;;103.53;;
26201;SDS011;13944;28.562;77.188;2022-10-23T00:52:03;162.23;;;106.17;;
26201;SDS011;13944;28.562;77.188;2022-10-23T00:54:33;157.77;;;106.57;;
26201;SDS011;13944;28.562;77.188;2022-10-23T00:57:02;166.80;;;107.23;;
26201;SDS011;13944;28.562;77.188;2022-10-23T00:59:29;178.00;;;109.73;;
26201;SDS011;13944;28.562;77.188;2022-10-23T01:01:56;172.30;;;111.27;;
26201;SDS011;13944;28.562;77.188;2022-10-23T01:04:23;178.27;;;110.70;;
26201;SDS011;13944;28.562;77.188;2022-10-23T01:09:52;174.33;;;112.67;;
26201;SDS011;13944;28.562;77.188;2022-10-23T01:17:50;178.50;;;113.30;;
26201;SDS011;13944;28.562;77.188;2022-10-23T01:28:20;188.03;;;118.57;;
26201;SDS011;13944;28.562;77.188;2022-10-23T01:30:50;187.23;;;117.23;;
26201;SDS011;13944;28.562;77.188;2022-10-23T01:33:24;181.70;;;117.93;;
26201;SDS011;13944;28.562;77.188;2022-10-23T01:35:52;178.97;;;115.77;;
26201;SDS011;13944;28.562;77.188;2022-10-23T01:38:45;187.10;;;118.37;;
26201;SDS011;13944;28.562;77.188;2022-10-23T01:43:43;186.27;;;124.77;;
26201;SDS011;13944;28.562;77.188;2022-10-23T01:46:11;189.73;;;121.80;;
26201;SDS011;13944;28.562;77.188;2022-10-23T01:48:38;238.40;;;125.03;;
26201;SDS011;13944;28.562;77.188;2022-10-23T01:51:06;195.73;;;118.70;;
26201;SDS011;13944;28.562;77.188;2022-10-23T01:53:35;203.67;;;122.57;;
26201;SDS011;13944;28.562;77.188;2022-10-23T01:56:04;307.23;;;128.83;;
26201;SDS011;13944;28.562;77.188;2022-10-23T01:58:32;211.50;;;122.00;;
26201;SDS011;13944;28.562;77.188;2022-10-23T02:01:00;210.57;;;121.23;;
26201;SDS011;13944;28.562;77.188;2022-10-23T02:03:29;194.93;;;119.60;;
26201;SDS011;13944;28.562;77.188;2022-10-23T02:05:56;185.50;;;119.13;;
26201;SDS011;13944;28.562;77.188;2022-10-23T02:08:22;182.73;;;118.40;;
26201;SDS011;13944;28.562;77.188;2022-10-23T02:13:30;185.83;;;119.27;;
26201;SDS011;13944;28.562;77.188;2022-10-23T02:18:39;178.60;;;115.90;;
26201;SDS011;13944;28.562;77.188;2022-10-23T02:21:12;186.40;;;115.03;;
26201;SDS011;13944;28.562;77.188;2022-10-23T02:23:42;217.20;;;120.83;;
26201;SDS011;13944;28.562;77.188;2022-10-23T02:28:42;180.90;;;117.40;;
26201;SDS011;13944;28.562;77.188;2022-10-23T02:31:11;180.03;;;114.70;;
26201;SDS011;13944;28.562;77.188;2022-10-23T02:33:38;181.60;;;114.90;;
26201;SDS011;13944;28.562;77.188;2022-10-23T02:36:05;171.48;;;113.82;;
26201;SDS011;13944;28.562;77.188;2022-10-23T02:38:36;181.17;;;115.30;;
26201;SDS011;13944;28.562;77.188;2022-10-23T02:43:55;163.47;;;109.77;;
26201;SDS011;13944;28.562;77.188;2022-10-23T02:46:27;160.97;;;108.23;;
26201;SDS011;13944;28.562;77.188;2022-10-23T02:49:01;158.85;;;106.57;;
26201;SDS011;13944;28.562;77.188;2022-10-23T02:51:56;154.27;;;107.87;;
26201;SDS011;13944;28.562;77.188;2022-10-23T02:57:04;160.95;;;104.78;;
26201;SDS011;13944;28.562;77.188;2022-10-23T03:02:01;156.18;;;104.75;;
26201;SDS011;13944;28.562;77.188;2022-10-23T03:04:28;152.70;;;108.27;;
26201;SDS011;13944;28.562;77.188;2022-10-23T03:06:55;151.88;;;103.72;;
26201;SDS011;13944;28.562;77.188;2022-10-23T03:09:21;145.30;;;101.95;;
26201;SDS011;13944;28.562;77.188;2022-10-23T03:11:48;149.60;;;103.88;;
26201;SDS011;13944;28.562;77.188;2022-10-23T03:14:14;160.70;;;105.25;;
26201;SDS011;13944;28.562;77.188;2022-10-23T03:16:41;144.98;;;103.00;;
26201;SDS011;13944;28.562;77.188;2022-10-23T03:19:08;154.65;;;103.63;;
26201;SDS011;13944;28.562;77.188;2022-10-23T03:21:34;161.85;;;103.93;;
26201;SDS011;13944;28.562;77.188;2022-10-23T03:24:01;161.85;;;109.15;;
26201;SDS011;13944;28.562;77.188;2022-10-23T03:26:27;161.30;;;105.63;;
26201;SDS011;13944;28.562;77.188;2022-10-23T03:28:54;159.00;;;104.28;;
26201;SDS011;13944;28.562;77.188;2022-10-23T03:31:21;154.65;;;105.32;;
26201;SDS011;13944;28.562;77.188;2022-10-23T03:33:47;143.30;;;103.43;;
26201;SDS011;13944;28.562;77.188;2022-10-23T03:36:14;153.65;;;100.35;;
26201;SDS011;13944;28.562;77.188;2022-10-23T03:38:40;151.48;;;102.43;;
26201;SDS011;13944;28.562;77.188;2022-10-23T03:41:07;144.38;;;100.25;;
26201;SDS011;13944;28.562;77.188;2022-10-23T03:43:33;147.70;;;99.63;;
26201;SDS011;13944;28.562;77.188;2022-10-23T03:46:00;144.70;;;97.55;;
26201;SDS011;13944;28.562;77.188;2022-10-23T03:48:26;130.40;;;96.03;;
26201;SDS011;13944;28.562;77.188;2022-10-23T03:50:56;142.55;;;98.53;;
26201;SDS011;13944;28.562;77.188;2022-10-23T03:53:22;137.02;;;94.60;;
26201;SDS011;13944;28.562;77.188;2022-10-23T03:55:49;130.52;;;91.70;;
26201;SDS011;13944;28.562;77.188;2022-10-23T03:58:16;146.90;;;95.45;;
26201;SDS011;13944;28.562;77.188;2022-10-23T04:00:42;130.02;;;90.20;;
26201;SDS011;13944;28.562;77.188;2022-10-23T04:03:08;134.60;;;92.35;;
26201;SDS011;13944;28.562;77.188;2022-10-23T04:05:35;126.75;;;91.05;;
26201;SDS011;13944;28.562;77.188;2022-10-23T04:08:02;137.52;;;95.35;;
26201;SDS011;13944;28.562;77.188;2022-10-23T04:10:28;135.80;;;92.57;;
26201;SDS011;13944;28.562;77.188;2022-10-23T04:12:55;128.20;;;91.65;;
26201;SDS011;13944;28.562;77.188;2022-10-23T04:15:21;135.10;;;94.82;;
26201;SDS011;13944;28.562;77.188;2022-10-23T04:17:50;128.57;;;92.82;;
26201;SDS011;13944;28.562;77.188;2022-10-23T04:20:17;141.30;;;98.55;;
26201;SDS011;13944;28.562;77.188;2022-10-23T04:22:44;173.55;;;103.95;;
26201;SDS011;13944;28.562;77.188;2022-10-23T04:25:10;167.85;;;104.80;;
26201;SDS011;13944;28.562;77.188;2022-10-23T04:27:37;167.57;;;102.13;;
26201;SDS011;13944;28.562;77.188;2022-10-23T04:30:03;165.02;;;104.78;;
26201;SDS011;13944;28.562;77.188;2022-10-23T04:32:30;159.43;;;100.15;;
26201;SDS011;13944;28.562;77.188;2022-10-23T04:34:56;154.55;;;101.03;;
26201;SDS011;13944;28.562;77.188;2022-10-23T04:37:23;143.80;;;99.13;;
26201;SDS011;13944;28.562;77.188;2022-10-23T04:39:49;167.75;;;114.28;;
26201;SDS011;13944;28.562;77.188;2022-10-23T04:42:16;163.38;;;109.78;;
26201;SDS011;13944;28.562;77.188;2022-10-23T04:44:42;153.63;;;105.95;;
26201;SDS011;13944;28.562;77.188;2022-10-23T04:47:09;162.27;;;111.80;;
26201;SDS011;13944;28.562;77.188;2022-10-23T04:49:35;152.20;;;107.05;;
26201;SDS011;13944;28.562;77.188;2022-10-23T04:52:02;158.00;;;108.15;;
26201;SDS011;13944;28.562;77.188;2022-10-23T04:54:33;147.88;;;109.03;;
26201;SDS011;13944;28.562;77.188;2022-10-23T04:57:00;148.90;;;108.47;;
26201;SDS011;13944;28.562;77.188;2022-10-23T04:59:26;144.90;;;107.00;;
26201;SDS011;13944;28.562;77.188;2022-10-23T05:01:53;149.38;;;104.72;;
26201;SDS011;13944;28.562;77.188;2022-10-23T05:04:19;141.57;;;105.40;;
26201;SDS011;13944;28.562;77.188;2022-10-23T05:06:46;150.45;;;106.70;;
26201;SDS011;13944;28.562;77.188;2022-10-23T05:09:12;151.77;;;106.82;;
26201;SDS011;13944;28.562;77.188;2022-10-23T05:11:39;154.18;;;108.00;;
26201;SDS011;13944;28.562;77.188;2022-10-23T05:14:05;148.10;;;106.22;;
26201;SDS011;13944;28.562;77.188;2022-10-23T05:16:36;149.77;;;105.45;;
26201;SDS011;13944;28.562;77.188;2022-10-23T05:19:05;145.07;;;108.28;;
26201;SDS011;13944;28.562;77.188;2022-10-23T05:21:33;155.13;;;109.35;;
26201;SDS011;13944;28.562;77.188;2022-10-23T05:24:00;150.57;;;105.78;;
26201;SDS011;13944;28.562;77.188;2022-10-23T05:26:27;140.38;;;105.55;;
26201;SDS011;13944;28.562;77.188;2022-10-23T05:28:54;139.65;;;104.38;;
26201;SDS011;13944;28.562;77.188;2022-10-23T05:31:20;136.98;;;103.53;;
26201;SDS011;13944;28.562;77.188;2022-10-23T05:33:47;136.07;;;102.75;;
26201;SDS011;13944;28.562;77.188;2022-10-23T05:36:14;139.85;;;100.20;;
26201;SDS011;13944;28.562;77.188;2022-10-23T05:38:41;150.13;;;103.95;;
26201;SDS011;13944;28.562;77.188;2022-10-23T05:41:08;150.48;;;101.82;;
26201;SDS011;13944;28.562;77.188;2022-10-23T05:43:34;164.95;;;105.38;;
26201;SDS011;13944;28.562;77.188;2022-10-23T05:46:03;150.50;;;101.35;;
26201;SDS011;13944;28.562;77.188;2022-10-23T05:48:30;134.15;;;97.15;;
26201;SDS011;13944;28.562;77.188;2022-10-23T05:51:07;137.77;;;97.03;;
26201;SDS011;13944;28.562;77.188;2022-10-23T05:53:34;133.40;;;95.57;;
26201;SDS011;13944;28.562;77.188;2022-10-23T05:56:04;140.13;;;99.03;;
26201;SDS011;13944;28.562;77.188;2022-10-23T05:58:31;131.70;;;93.88;;
26201;SDS011;13944;28.562;77.188;2022-10-23T06:00:58;141.23;;;95.25;;
26201;SDS011;13944;28.562;77.188;2022-10-23T06:03:24;134.55;;;101.38;;
26201;SDS011;13944;28.562;77.188;2022-10-23T06:05:51;132.48;;;98.90;;
26201;SDS011;13944;28.562;77.188;2022-10-23T06:08:18;138.52;;;99.47;;
26201;SDS011;13944;28.562;77.188;2022-10-23T06:10:44;130.32;;;95.18;;
26201;SDS011;13944;28.562;77.188;2022-10-23T06:13:11;143.63;;;100.38;;
26201;SDS011;13944;28.562;77.188;2022-10-23T06:15:37;132.05;;;95.60;;
26201;SDS011;13944;28.562;77.188;2022-10-23T06:18:04;136.32;;;98.28;;
26201;SDS011;13944;28.562;77.188;2022-10-23T06:20:33;135.20;;;96.32;;
26201;SDS011;13944;28.562;77.188;2022-10-23T06:23:00;133.55;;;97.57;;
26201;SDS011;13944;28.562;77.188;2022-10-23T06:25:27;131.45;;;95.03;;
26201;SDS011;13944;28.562;77.188;2022-10-23T06:27:53;128.52;;;93.85;;
26201;SDS011;13944;28.562;77.188;2022-10-23T06:30:20;125.28;;;94.32;;
26201;SDS011;13944;28.562;77.188;2022-10-23T06:32:46;134.27;;;94.28;;
26201;SDS011;13944;28.562;77.188;2022-10-23T06:35:13;138.10;;;97.05;;
26201;SDS011;13944;28.562;77.188;2022-10-23T06:37:39;129.95;;;94.78;;
26201;SDS011;13944;28.562;77.188;2022-10-23T06:40:06;121.38;;;91.00;;
26201;SDS011;13944;28.562;77.188;2022-10-23T06:42:33;118.95;;;88.22;;
26201;SDS011;13944;28.562;77.188;2022-10-23T06:44:59;122.00;;;90.28;;
26201;SDS011;13944;28.562;77.188;2022-10-23T06:47:26;132.80;;;92.85;;
26201;SDS011;13944;28.562;77.188;2022-10-23T06:49:52;122.13;;;92.15;;
26201;SDS011;13944;28.562;77.188;2022-10-23T06:52:19;124.47;;;94.03;;
26201;SDS011;13944;28.562;77.188;2022-10-23T06:54:45;131.38;;;95.63;;
26201;SDS011;13944;28.562;77.188;2022-10-23T06:57:12;125.85;;;95.88;;
26201;SDS011;13944;28.562;77.188;2022-10-23T06:59:39;129.02;;;96.55;;
26201;SDS011;13944;28.562;77.188;2022-10-23T07:02:05;130.60;;;93.45;;
26201;SDS011;13944;28.562;77.188;2022-10-23T07:04:32;119.72;;;89.03;;
26201;SDS011;13944;28.562;77.188;2022-10-23T07:06:58;123.00;;;90.63;;
26201;SDS011;13944;28.562;77.188;2022-10-23T07:09:25;110.47;;;83.88;;
26201;SDS011;13944;28.562;77.188;2022-10-23T07:11:51;112.22;;;83.38;;
26201;SDS011;13944;28.562;77.188;2022-10-23T07:14:18;110.38;;;82.45;;
26201;SDS011;13944;28.562;77.188;2022-10-23T07:16:44;121.13;;;88.03;;
26201;SDS011;13944;28.562;77.188;2022-10-23T07:19:11;116.55;;;87.13;;
26201;SDS011;13944;28.562;77.188;2022-10-23T07:21:37;115.18;;;84.43;;
26201;SDS011;13944;28.562;77.188;2022-10-23T07:24:04;121.82;;;84.43;;
26201;SDS011;13944;28.562;77.188;2022-10-23T07:26:30;112.45;;;83.18;;
26201;SDS011;13944;28.562;77.188;2022-10-23T07:28:57;118.18;;;83.22;;
26201;SDS011;13944;28.562;77.188;2022-10-23T07:31:24;107.28;;;82.88;;
26201;SDS011;13944;28.562;77.188;2022-10-23T07:33:51;114.25;;;81.68;;
26201;SDS011;13944;28.562;77.188;2022-10-23T07:36:17;114.00;;;81.22;;
26201;SDS011;13944;28.562;77.188;2022-10-23T07:38:44;104.10;;;78.70;;
26201;SDS011;13944;28.562;77.188;2022-10-23T07:41:11;107.55;;;77.35;;
26201;SDS011;13944;28.562;77.188;2022-10-23T07:43:37;99.85;;;75.22;;
26201;SDS011;13944;28.562;77.188;2022-10-23T07:46:07;102.75;;;77.65;;
26201;SDS011;13944;28.562;77.188;2022-10-23T07:48:34;105.28;;;79.03;;
26201;SDS011;13944;28.562;77.188;2022-10-23T07:51:03;111.75;;;82.28;;
26201;SDS011;13944;28.562;77.188;2022-10-23T07:53:33;117.18;;;80.97;;
26201;SDS011;13944;28.562;77.188;2022-10-23T07:56:00;118.82;;;85.22;;
26201;SDS011;13944;28.562;77.188;2022-10-23T07:58:27;115.15;;;83.07;;
26201;SDS011;13944;28.562;77.188;2022-10-23T08:00:58;117.43;;;82.50;;
26201;SDS011;13944;28.562;77.188;2022-10-23T08:03:28;108.70;;;82.85;;
26201;SDS011;13944;28.562;77.188;2022-10-23T08:05:55;118.32;;;87.47;;
26201;SDS011;13944;28.562;77.188;2022-10-23T08:08:22;116.70;;;86.50;;
26201;SDS011;13944;28.562;77.188;2022-10-23T08:10:49;123.65;;;86.03;;
26201;SDS011;13944;28.562;77.188;2022-10-23T08:13:16;125.30;;;87.78;;
26201;SDS011;13944;28.562;77.188;2022-10-23T08:15:44;126.13;;;86.65;;
26201;SDS011;13944;28.562;77.188;2022-10-23T08:18:11;122.65;;;87.03;;
26201;SDS011;13944;28.562;77.188;2022-10-23T08:20:39;111.20;;;87.30;;
26201;SDS011;13944;28.562;77.188;2022-10-23T08:23:05;117.63;;;85.70;;
26201;SDS011;13944;28.562;77.188;2022-10-23T08:25:36;110.80;;;86.53;;
26201;SDS011;13944;28.562;77.188;2022-10-23T08:28:04;124.93;;;87.35;;
26201;SDS011;13944;28.562;77.188;2022-10-23T08:30:30;113.10;;;82.80;;
26201;SDS011;13944;28.562;77.188;2022-10-23T08:32:57;119.00;;;86.25;;
26201;SDS011;13944;28.562;77.188;2022-10-23T08:35:23;124.18;;;89.13;;
26201;SDS011;13944;28.562;77.188;2022-10-23T08:37:50;123.32;;;89.05;;
26201;SDS011;13944;28.562;77.188;2022-10-23T08:40:17;118.63;;;86.22;;
26201;SDS011;13944;28.562;77.188;2022-10-23T08:42:46;152.25;;;90.13;;
26201;SDS011;13944;28.562;77.188;2022-10-23T08:47:47;131.52;;;83.38;;
26201;SDS011;13944;28.562;77.188;2022-10-23T08:50:38;128.70;;;82.38;;
26201;SDS011;13944;28.562;77.188;2022-10-23T08:55:46;109.00;;;78.97;;
26201;SDS011;13944;28.562;77.188;2022-10-23T08:58:15;110.18;;;79.38;;
26201;SDS011;13944;28.562;77.188;2022-10-23T09:00:44;113.05;;;82.03;;
26201;SDS011;13944;28.562;77.188;2022-10-23T09:03:12;115.35;;;80.35;;
26201;SDS011;13944;28.562;77.188;2022-10-23T09:08:43;137.07;;;84.30;;
26201;SDS011;13944;28.562;77.188;2022-10-23T09:13:58;140.45;;;81.68;;
26201;SDS011;13944;28.562;77.188;2022-10-23T09:19:14;114.55;;;78.65;;
26201;SDS011;13944;28.562;77.188;2022-10-23T09:21:41;109.28;;;77.38;;
26201;SDS011;13944;28.562;77.188;2022-10-23T09:24:12;111.13;;;79.85;;
26201;SDS011;13944;28.562;77.188;2022-10-23T09:26:43;106.57;;;76.50;;
26201;SDS011;13944;28.562;77.188;2022-10-23T09:29:24;110.35;;;75.25;;
26201;SDS011;13944;28.562;77.188;2022-10-23T09:32:01;108.40;;;76.78;;
26201;SDS011;13944;28.562;77.188;2022-10-23T09:34:29;105.38;;;76.75;;
26201;SDS011;13944;28.562;77.188;2022-10-23T09:37:19;105.75;;;76.13;;
26201;SDS011;13944;28.562;77.188;2022-10-23T09:39:42;99.30;;;74.65;;
26201;SDS011;13944;28.562;77.188;2022-10-23T09:42:13;117.47;;;75.45;;
26201;SDS011;13944;28.562;77.188;2022-10-23T09:44:46;107.95;;;74.68;;
26201;SDS011;13944;28.562;77.188;2022-10-23T09:47:20;111.82;;;76.72;;
26201;SDS011;13944;28.562;77.188;2022-10-23T09:49:49;120.80;;;75.97;;
26201;SDS011;13944;28.562;77.188;2022-10-23T09:54:44;108.70;;;75.65;;
26201;SDS011;13944;28.562;77.188;2022-10-23T09:57:14;106.60;;;74.82;;
26201;SDS011;13944;28.562;77.188;2022-10-23T09:59:49;114.78;;;74.70;;
26201;SDS011;13944;28.562;77.188;2022-10-23T10:02:26;102.50;;;74.55;;
26201;SDS011;13944;28.562;77.188;2022-10-23T10:04:53;107.75;;;74.75;;
26201;SDS011;13944;28.562;77.188;2022-10-23T10:07:21;114.45;;;77.28;;
26201;SDS011;13944;28.562;77.188;2022-10-23T10:09:48;110.68;;;75.40;;
26201;SDS011;13944;28.562;77.188;2022-10-23T10:14:47;115.85;;;76.10;;
26201;SDS011;13944;28.562;77.188;2022-10-23T10:17:21;105.47;;;74.72;;
26201;SDS011;13944;28.562;77.188;2022-10-23T10:34:52;130.10;;;78.85;;
26201;SDS011;13944;28.562;77.188;2022-10-23T10:39:57;141.30;;;78.63;;
26201;SDS011;13944;28.562;77.188;2022-10-23T10:50:30;119.32;;;77.88;;
26201;SDS011;13944;28.562;77.188;2022-10-23T10:55:40;113.82;;;74.05;;
26201;SDS011;13944;28.562;77.188;2022-10-23T10:58:14;110.00;;;74.75;;
26201;SDS011;13944;28.562;77.188;2022-10-23T11:00:41;116.53;;;76.10;;
26201;SDS011;13944;28.562;77.188;2022-10-23T11:05:45;112.13;;;75.97;;
26201;SDS011;13944;28.562;77.188;2022-10-23T11:10:59;122.10;;;78.53;;
26201;SDS011;13944;28.562;77.188;2022-10-23T11:13:28;118.47;;;79.38;;
26201;SDS011;13944;28.562;77.188;2022-10-23T11:16:00;118.07;;;78.05;;
26201;SDS011;13944;28.562;77.188;2022-10-23T11:18:28;105.82;;;78.78;;
26201;SDS011;13944;28.562;77.188;2022-10-23T11:21:13;119.70;;;79.68;;
26201;SDS011;13944;28.562;77.188;2022-10-23T11:33:51;124.35;;;83.38;;
26201;SDS011;13944;28.562;77.188;2022-10-23T11:39:18;134.05;;;84.50;;
26201;SDS011;13944;28.562;77.188;2022-10-23T11:41:50;127.00;;;85.90;;
26201;SDS011;13944;28.562;77.188;2022-10-23T11:46:59;123.88;;;88.47;;
26201;SDS011;13944;28.562;77.188;2022-10-23T11:49:25;137.98;;;94.95;;
26201;SDS011;13944;28.562;77.188;2022-10-23T11:52:02;140.90;;;94.32;;
26201;SDS011;13944;28.562;77.188;2022-10-23T11:54:29;155.45;;;100.13;;
26201;SDS011;13944;28.562;77.188;2022-10-23T11:57:12;162.05;;;104.18;;
26201;SDS011;13944;28.562;77.188;2022-10-23T12:04:53;160.02;;;101.97;;
26201;SDS011;13944;28.562;77.188;2022-10-23T12:12:27;157.52;;;104.68;;
26201;SDS011;13944;28.562;77.188;2022-10-23T12:15:06;155.50;;;104.50;;
26201;SDS011;13944;28.562;77.188;2022-10-23T12:17:38;152.02;;;103.55;;
26201;SDS011;13944;28.562;77.188;2022-10-23T12:25:09;150.75;;;102.25;;
26201;SDS011;13944;28.562;77.188;2022-10-23T12:40:30;143.68;;;104.53;;
26201;SDS011;13944;28.562;77.188;2022-10-23T12:42:57;159.85;;;111.20;;
26201;SDS011;13944;28.562;77.188;2022-10-23T12:47:51;174.27;;;114.57;;
26201;SDS011;13944;28.562;77.188;2022-10-23T12:50:20;176.70;;;121.53;;
26201;SDS011;13944;28.562;77.188;2022-10-23T12:53:20;171.88;;;120.03;;
26201;SDS011;13944;28.562;77.188;2022-10-23T12:55:56;170.98;;;122.15;;
26201;SDS011;13944;28.562;77.188;2022-10-23T12:58:25;176.07;;;125.38;;
26201;SDS011;13944;28.562;77.188;2022-10-23T13:00:55;178.15;;;124.43;;
26201;SDS011;13944;28.562;77.188;2022-10-23T13:03:22;172.80;;;126.28;;
26201;SDS011;13944;28.562;77.188;2022-10-23T13:05:50;183.18;;;127.40;;
26201;SDS011;13944;28.562;77.188;2022-10-23T13:08:17;182.20;;;127.88;;
26201;SDS011;13944;28.562;77.188;2022-10-23T13:10:44;187.07;;;130.63;;
26201;SDS011;13944;28.562;77.188;2022-10-23T13:13:11;187.38;;;134.40;;
26201;SDS011;13944;28.562;77.188;2022-10-23T13:15:39;185.40;;;132.50;;
26201;SDS011;13944;28.562;77.188;2022-10-23T13:18:07;200.63;;;133.88;;
26201;SDS011;13944;28.562;77.188;2022-10-23T13:20:34;195.40;;;138.65;;
26201;SDS011;13944;28.562;77.188;2022-10-23T13:23:19;180.95;;;136.75;;
26201;SDS011;13944;28.562;77.188;2022-10-23T13:25:56;209.02;;;143.60;;
26201;SDS011;13944;28.562;77.188;2022-10-23T13:31:01;207.82;;;144.38;;
26201;SDS011;13944;28.562;77.188;2022-10-23T13:33:38;211.20;;;148.30;;
26201;SDS011;13944;28.562;77.188;2022-10-23T13:38:41;213.25;;;148.45;;
26201;SDS011;13944;28.562;77.188;2022-10-23T13:41:15;214.15;;;152.43;;
26201;SDS011;13944;28.562;77.188;2022-10-23T13:43:42;221.15;;;157.43;;
26201;SDS011;13944;28.562;77.188;2022-10-23T13:46:13;224.68;;;160.05;;
26201;SDS011;13944;28.562;77.188;2022-10-23T13:48:40;222.65;;;157.88;;
26201;SDS011;13944;28.562;77.188;2022-10-23T13:51:11;239.10;;;162.18;;
26201;SDS011;13944;28.562;77.188;2022-10-23T13:53:38;242.95;;;169.70;;
26201;SDS011;13944;28.562;77.188;2022-10-23T13:56:05;255.48;;;171.90;;
26201;SDS011;13944;28.562;77.188;2022-10-23T13:58:31;249.68;;;176.57;;
26201;SDS011;13944;28.562;77.188;2022-10-23T14:00:58;255.10;;;185.85;;
26201;SDS011;13944;28.562;77.188;2022-10-23T14:03:24;251.65;;;181.85;;
26201;SDS011;13944;28.562;77.188;2022-10-23T14:05:51;249.70;;;191.45;;
26201;SDS011;13944;28.562;77.188;2022-10-23T14:08:18;273.58;;;194.32;;
26201;SDS011;13944;28.562;77.188;2022-10-23T14:10:44;267.85;;;194.27;;
26201;SDS011;13944;28.562;77.188;2022-10-23T14:13:11;247.23;;;176.15;;
26201;SDS011;13944;28.562;77.188;2022-10-23T14:15:37;252.00;;;180.20;;
26201;SDS011;13944;28.562;77.188;2022-10-23T14:18:04;242.05;;;170.70;;
26201;SDS011;13944;28.562;77.188;2022-10-23T14:20:31;247.85;;;162.88;;
26201;SDS011;13944;28.562;77.188;2022-10-23T14:22:57;237.50;;;172.05;;
26201;SDS011;13944;28.562;77.188;2022-10-23T14:25:24;250.07;;;178.68;;
26201;SDS011;13944;28.562;77.188;2022-10-23T14:27:50;251.15;;;185.52;;
26201;SDS011;13944;28.562;77.188;2022-10-23T14:30:17;245.60;;;185.98;;
26201;SDS011;13944;28.562;77.188;2022-10-23T14:32:43;252.25;;;185.98;;
26201;SDS011;13944;28.562;77.188;2022-10-23T14:35:10;249.95;;;184.00;;
26201;SDS011;13944;28.562;77.188;2022-10-23T14:37:36;245.50;;;180.27;;
26201;SDS011;13944;28.562;77.188;2022-10-23T14:40:03;252.73;;;181.95;;
26201;SDS011;13944;28.562;77.188;2022-10-23T14:42:30;246.25;;;176.93;;
26201;SDS011;13944;28.562;77.188;2022-10-23T14:44:59;234.85;;;170.15;;
26201;SDS011;13944;28.562;77.188;2022-10-23T14:47:26;241.63;;;169.60;;
26201;SDS011;13944;28.562;77.188;2022-10-23T14:49:53;236.32;;;169.40;;
26201;SDS011;13944;28.562;77.188;2022-10-23T14:52:20;228.35;;;171.15;;
26201;SDS011;13944;28.562;77.188;2022-10-23T14:54:49;238.77;;;173.45;;
26201;SDS011;13944;28.562;77.188;2022-10-23T14:57:15;234.63;;;175.75;;
26201;SDS011;13944;28.562;77.188;2022-10-23T14:59:45;256.55;;;176.20;;
26201;SDS011;13944;28.562;77.188;2022-10-23T15:02:11;251.43;;;179.55;;
26201;SDS011;13944;28.562;77.188;2022-10-23T15:04:38;253.90;;;179.13;;
26201;SDS011;13944;28.562;77.188;2022-10-23T15:07:05;250.20;;;179.88;;
26201;SDS011;13944;28.562;77.188;2022-10-23T15:09:31;249.50;;;180.20;;
26201;SDS011;13944;28.562;77.188;2022-10-23T15:12:02;242.43;;;178.95;;
26201;SDS011;13944;28.562;77.188;2022-10-23T15:14:29;256.17;;;182.32;;
26201;SDS011;13944;28.562;77.188;2022-10-23T15:16:55;254.57;;;185.00;;
26201;SDS011;13944;28.562;77.188;2022-10-23T15:19:22;255.73;;;182.85;;
26201;SDS011;13944;28.562;77.188;2022-10-23T15:21:48;253.55;;;184.43;;
26201;SDS011;13944;28.562;77.188;2022-10-23T15:24:16;255.73;;;188.05;;
26201;SDS011;13944;28.562;77.188;2022-10-23T15:26:45;259.63;;;184.05;;
26201;SDS011;13944;28.562;77.188;2022-10-23T15:29:12;246.77;;;182.63;;
26201;SDS011;13944;28.562;77.188;2022-10-23T15:31:43;250.85;;;182.32;;
26201;SDS011;13944;28.562;77.188;2022-10-23T15:34:12;256.17;;;184.20;;
26201;SDS011;13944;28.562;77.188;2022-10-23T15:36:38;248.68;;;182.90;;
26201;SDS011;13944;28.562;77.188;2022-10-23T15:39:06;239.48;;;175.27;;
26201;SDS011;13944;28.562;77.188;2022-10-23T15:41:34;252.90;;;183.02;;
26201;SDS011;13944;28.562;77.188;2022-10-23T15:44:01;254.95;;;184.55;;
26201;SDS011;13944;28.562;77.188;2022-10-23T15:46:28;254.52;;;181.68;;
26201;SDS011;13944;28.562;77.188;2022-10-23T15:48:54;257.55;;;182.20;;
26201;SDS011;13944;28.562;77.188;2022-10-23T15:51:21;239.55;;;181.40;;
26201;SDS011;13944;28.562;77.188;2022-10-23T15:53:47;258.58;;;184.75;;
26201;SDS011;13944;28.562;77.188;2022-10-23T15:56:14;259.92;;;187.90;;
26201;SDS011;13944;28.562;77.188;2022-10-23T15:58:41;240.60;;;181.43;;
26201;SDS011;13944;28.562;77.188;2022-10-23T16:01:07;242.27;;;185.38;;
26201;SDS011;13944;28.562;77.188;2022-10-23T16:03:34;253.80;;;185.05;;
26201;SDS011;13944;28.562;77.188;2022-10-23T16:06:09;244.65;;;186.15;;
26201;SDS011;13944;28.562;77.188;2022-10-23T16:08:36;245.98;;;180.07;;
26201;SDS011;13944;28.562;77.188;2022-10-23T16:11:03;245.85;;;179.80;;
26201;SDS011;13944;28.562;77.188;2022-10-23T16:13:29;245.32;;;175.25;;
26201;SDS011;13944;28.562;77.188;2022-10-23T16:15:56;234.40;;;174.38;;
26201;SDS011;13944;28.562;77.188;2022-10-23T16:18:22;222.27;;;166.40;;